Time;durP1;ratioP1;P1;durP2;ratioP2;P2;SDS_P1;SDS_P2;PMS_P1;PMS_P2;Temp;Humidity;BMP_temperature;BMP_pressure;BME280_temperature;BME280_humidity;BME280_pressure;Samples;Min_cycle;Max_cycle;Signal;HPM_P1;HPM_P2
2023/04/01 00:01:31;;;;;;;2.30;0.60;;;7.50;99.90;;;;;;5040589;28;20053;-88
2023/04/01 00:04:01;;;;;;;1.13;0.70;;;7.50;99.90;;;;;;5031133;28;20045;-87
2023/04/01 00:06:30;;;;;;;0.65;0.60;;;7.50;99.90;;;;;;5025741;28;20052;-87
2023/04/01 00:08:58;;;;;;;1.67;0.75;;;7.40;99.90;;;;;;5058906;28;20063;-88
2023/04/01 00:11:27;;;;;;;1.33;0.70;;;7.50;99.90;;;;;;5031322;28;20053;-89
2023/04/01 00:13:54;;;;;;;1.02;0.60;;;7.50;99.90;;;;;;5054480;28;20452;-89
2023/04/01 00:16:22;;;;;;;1.00;0.63;;;7.50;99.90;;;;;;5046925;28;20056;-91
2023/04/01 00:18:51;;;;;;;2.35;0.70;;;7.40;99.90;;;;;;5033415;28;20044;-89
2023/04/01 00:21:20;;;;;;;0.68;0.63;;;7.30;99.90;;;;;;5028671;28;20650;-87
2023/04/01 00:23:50;;;;;;;0.70;0.70;;;7.40;99.90;;;;;;5050718;28;20040;-87
2023/04/01 00:26:20;;;;;;;0.50;0.50;;;7.30;99.90;;;;;;5015607;28;20049;-87
2023/04/01 00:28:49;;;;;;;1.27;0.70;;;7.30;99.90;;;;;;5036755;28;20057;-89
2023/04/01 00:31:18;;;;;;;1.20;1.10;;;7.20;99.90;;;;;;5038003;28;20048;-88
2023/04/01 00:33:46;;;;;;;1.02;0.70;;;7.10;99.90;;;;;;5029716;28;20063;-85
2023/04/01 00:36:18;;;;;;;1.07;0.97;;;7.20;99.90;;;;;;5036288;28;20052;-88
2023/04/01 00:38:46;;;;;;;0.68;0.60;;;7.30;99.90;;;;;;5007399;28;20045;-89
2023/04/01 00:41:16;;;;;;;2.85;0.70;;;7.10;99.90;;;;;;5038133;28;20044;-90
2023/04/01 00:43:48;;;;;;;1.67;0.98;;;6.90;99.90;;;;;;5015592;28;20049;-87
2023/04/01 00:46:16;;;;;;;;;;;7.00;99.90;;;;;;5014232;28;20049;-92
2023/04/01 00:48:57;;;;;;;1.73;0.50;;;7.00;99.90;;;;;;5020599;28;19924;-90
2023/04/01 00:51:28;;;;;;;2.80;0.82;;;7.00;99.90;;;;;;5033986;28;20057;-90
2023/04/01 00:53:58;;;;;;;;;;;7.00;99.90;;;;;;5025844;28;20057;-88
2023/04/01 00:56:35;;;;;;;0.55;0.55;;;7.10;99.90;;;;;;5014543;28;19932;-92
2023/04/01 00:59:11;;;;;;;2.05;0.80;;;7.00;99.90;;;;;;5030490;28;20286;-93
2023/04/01 01:01:39;;;;;;;1.38;1.25;;;7.00;99.90;;;;;;5019351;28;20044;-88
2023/04/01 01:04:43;;;;;;;1.05;0.88;;;7.00;99.90;;;;;;5017945;28;20049;-90
2023/04/01 01:07:21;;;;;;;0.70;0.70;;;7.00;99.90;;;;;;4993834;28;20045;-91
2023/04/01 01:10:08;;;;;;;1.83;1.70;;;7.00;99.90;;;;;;5019676;28;20064;-88
2023/04/01 01:12:59;;;;;;;4.30;0.80;;;7.00;99.90;;;;;;5039629;28;20057;-91
2023/04/01 01:15:32;;;;;;;0.63;0.63;;;7.10;99.90;;;;;;5040666;28;20048;-90
2023/04/01 01:18:41;;;;;;;1.88;0.70;;;7.00;99.90;;;;;;5032569;28;20052;-91
2023/04/01 01:21:20;;;;;;;0.85;0.85;;;7.00;99.90;;;;;;5053513;28;20052;-88
2023/04/01 01:24:10;;;;;;;1.67;0.70;;;7.10;99.90;;;;;;5033378;28;20041;-93
2023/04/01 01:26:45;;;;;;;1.63;1.52;;;7.20;99.90;;;;;;5058832;28;20044;-90
2023/04/01 01:29:31;;;;;;;4.75;1.85;;;7.20;99.90;;;;;;5057747;28;20060;-89
2023/04/01 01:32:02;;;;;;;1.85;0.77;;;7.20;99.90;;;;;;5038148;28;20061;-91
2023/04/01 01:34:41;;;;;;;1.63;0.67;;;7.20;99.90;;;;;;5061148;28;20055;-91
2023/04/01 01:37:15;;;;;;;0.90;0.90;;;7.20;99.90;;;;;;5071075;28;20290;-93
2023/04/01 01:40:00;;;;;;;0.98;0.70;;;7.20;99.90;;;;;;5039495;28;20040;-94
2023/04/01 01:42:33;;;;;;;1.40;0.90;;;7.30;99.90;;;;;;5032137;28;20052;-90
2023/04/01 01:45:03;;;;;;;1.75;1.00;;;7.20;99.90;;;;;;5047225;28;20044;-89
2023/04/01 01:47:32;;;;;;;1.65;0.90;;;7.20;99.90;;;;;;5027480;28;20051;-91
2023/04/01 01:50:01;;;;;;;1.60;0.70;;;7.20;99.90;;;;;;5022029;28;20374;-89
2023/04/01 01:52:29;;;;;;;2.25;0.80;;;7.30;99.90;;;;;;5067876;28;20052;-92
2023/04/01 01:54:58;;;;;;;0.73;0.70;;;7.30;99.90;;;;;;5044442;28;20056;-91
2023/04/01 01:57:36;;;;;;;1.00;0.88;;;7.20;99.90;;;;;;5078102;28;20044;-90
2023/04/01 02:00:13;;;;;;;2.95;1.88;;;7.20;99.90;;;;;;5031520;28;20041;-90
2023/04/01 02:02:47;;;;;;;0.70;0.63;;;7.30;99.90;;;;;;5045593;28;20029;-91
2023/04/01 02:05:49;;;;;;;1.02;0.95;;;7.20;99.90;;;;;;5061418;28;20080;-90
2023/04/01 02:08:25;;;;;;;7.43;1.20;;;7.20;99.90;;;;;;5025328;28;20302;-87
2023/04/01 02:11:06;;;;;;;0.68;0.68;;;7.20;99.90;;;;;;5020404;28;20181;-87
2023/04/01 02:13:57;;;;;;;1.60;1.50;;;7.20;99.90;;;;;;5038278;28;20056;-89
2023/04/01 02:16:58;;;;;;;4.05;1.13;;;7.20;99.90;;;;;;5039712;28;20063;-89
2023/04/01 02:19:36;;;;;;;1.65;1.05;;;7.20;99.90;;;;;;5030022;28;20206;-89
2023/04/01 02:22:09;;;;;;;8.07;2.00;;;7.20;99.90;;;;;;5024185;28;20064;-88
2023/04/01 02:24:38;;;;;;;3.08;1.00;;;7.10;99.90;;;;;;5041170;28;20053;-89
2023/04/01 02:27:08;;;;;;;2.22;0.90;;;7.20;99.90;;;;;;5041848;28;20046;-86
2023/04/01 02:29:37;;;;;;;1.02;0.73;;;7.20;99.90;;;;;;5016127;28;20043;-89
2023/04/01 02:32:09;;;;;;;4.43;0.75;;;7.20;99.90;;;;;;5053940;28;20036;-91
2023/04/01 02:34:37;;;;;;;0.70;0.70;;;7.20;99.90;;;;;;5057518;28;20051;-89
2023/04/01 02:37:05;;;;;;;1.15;0.70;;;7.20;99.90;;;;;;5074604;28;20040;-88
2023/04/01 02:39:33;;;;;;;0.80;0.65;;;7.10;99.90;;;;;;5058944;28;20033;-89
2023/04/01 02:42:01;;;;;;;4.38;0.85;;;7.10;99.90;;;;;;5065121;28;20059;-90
2023/04/01 02:44:29;;;;;;;3.28;1.08;;;7.10;99.90;;;;;;5058055;28;20316;-93
2023/04/01 02:46:58;;;;;;;4.00;1.58;;;7.10;99.90;;;;;;5065029;28;20032;-93
2023/04/01 02:49:26;;;;;;;1.33;0.60;;;7.10;99.90;;;;;;5076173;28;20401;-90
2023/04/01 02:51:54;;;;;;;1.08;0.90;;;7.10;99.90;;;;;;5063267;28;20052;-90
2023/04/01 02:54:22;;;;;;;1.38;0.63;;;7.10;99.90;;;;;;5047721;28;20051;-87
2023/04/01 02:56:49;;;;;;;1.60;1.38;;;7.10;99.90;;;;;;5047972;28;20052;-87
2023/04/01 02:59:19;;;;;;;3.47;1.20;;;7.10;99.90;;;;;;5032908;28;20521;-89
2023/04/01 03:01:49;;;;;;;;;;;7.10;99.90;;;;;;5042812;28;20499;-86
2023/04/01 03:04:16;;;;;;;1.15;0.70;;;7.20;99.90;;;;;;5070163;28;19924;-88
2023/04/01 03:06:45;;;;;;;0.80;0.70;;;7.20;99.90;;;;;;5053538;28;20057;-87
2023/04/01 03:09:14;;;;;;;0.40;0.40;;;7.10;99.90;;;;;;5057173;28;20049;-88
2023/04/01 03:11:50;;;;;;;0.73;0.73;;;7.20;99.90;;;;;;5037711;28;20500;-86
2023/04/01 03:14:18;;;;;;;0.95;0.70;;;7.30;99.90;;;;;;5055045;28;20041;-89
2023/04/01 03:16:46;;;;;;;0.88;0.80;;;7.20;99.90;;;;;;5022663;28;20404;-86
2023/04/01 03:19:14;;;;;;;0.57;0.57;;;7.30;99.90;;;;;;5052399;28;20457;-88
2023/04/01 03:21:43;;;;;;;0.63;0.63;;;7.20;99.90;;;;;;5056782;28;20296;-88
2023/04/01 03:24:13;;;;;;;0.40;0.40;;;7.30;99.90;;;;;;5055641;28;20420;-87
2023/04/01 03:26:43;;;;;;;1.10;0.70;;;7.30;99.90;;;;;;5049085;28;20048;-86
2023/04/01 03:29:10;;;;;;;2.30;0.88;;;7.30;99.90;;;;;;5037306;28;20048;-87
2023/04/01 03:31:40;;;;;;;1.77;0.73;;;7.20;99.90;;;;;;5053770;28;20044;-85
2023/04/01 03:34:14;;;;;;;0.50;0.50;;;7.20;99.90;;;;;;5042757;28;20044;-86
2023/04/01 03:36:42;;;;;;;1.67;0.50;;;7.20;99.90;;;;;;5072047;28;20472;-85
2023/04/01 03:39:10;;;;;;;0.60;0.60;;;7.20;99.90;;;;;;5057034;28;20424;-88
2023/04/01 03:41:41;;;;;;;1.20;0.60;;;7.20;99.90;;;;;;5024330;28;20523;-87
2023/04/01 03:44:09;;;;;;;0.65;0.65;;;7.10;99.90;;;;;;5056134;28;20048;-87
2023/04/01 03:46:37;;;;;;;0.50;0.50;;;7.10;99.90;;;;;;5041040;28;20504;-87
2023/04/01 03:49:13;;;;;;;1.67;0.70;;;7.10;99.90;;;;;;5055838;28;20434;-86
2023/04/01 03:51:42;;;;;;;0.68;0.68;;;7.10;99.90;;;;;;5029111;28;20049;-86
2023/04/01 03:54:11;;;;;;;2.90;0.50;;;7.00;99.90;;;;;;5048860;28;20523;-87
2023/04/01 03:56:40;;;;;;;0.60;0.60;;;7.10;99.90;;;;;;5026432;28;20063;-86
2023/04/01 03:59:08;;;;;;;0.57;0.57;;;7.00;99.90;;;;;;5037049;28;20059;-87
2023/04/01 04:01:36;;;;;;;0.55;0.55;;;7.00;99.90;;;;;;5044367;28;20049;-86
2023/04/01 04:04:14;;;;;;;0.45;0.45;;;7.00;99.90;;;;;;5057291;28;20512;-89
2023/04/01 04:06:42;;;;;;;0.52;0.52;;;7.00;99.90;;;;;;5043509;28;20051;-86
2023/04/01 04:09:10;;;;;;;0.77;0.60;;;6.90;99.90;;;;;;5057831;28;20056;-87
2023/04/01 04:11:38;;;;;;;0.50;0.50;;;6.80;99.90;;;;;;5045840;28;20256;-87
2023/04/01 04:14:05;;;;;;;0.47;0.47;;;6.90;99.90;;;;;;5024034;28;20048;-87
2023/04/01 04:16:38;;;;;;;0.50;0.50;;;6.80;99.90;;;;;;5055146;28;20052;-86
2023/04/01 04:19:06;;;;;;;0.40;0.40;;;6.80;99.90;;;;;;5028478;28;20052;-86
2023/04/01 04:21:34;;;;;;;0.47;0.47;;;6.80;99.90;;;;;;5044376;28;20053;-86
2023/04/01 04:24:02;;;;;;;0.55;0.55;;;6.80;99.90;;;;;;5015045;28;20053;-86
2023/04/01 04:26:50;;;;;;;0.73;0.60;;;6.80;99.90;;;;;;5032352;28;20041;-86
2023/04/01 04:29:18;;;;;;;0.70;0.70;;;6.80;99.90;;;;;;5014964;28;20049;-90
2023/04/01 04:31:46;;;;;;;0.50;0.50;;;6.80;99.90;;;;;;5037178;28;20053;-85
2023/04/01 04:34:18;;;;;;;0.60;0.60;;;6.80;99.90;;;;;;5004820;28;20048;-87
2023/04/01 04:36:46;;;;;;;0.50;0.50;;;6.70;99.90;;;;;;5023893;28;20060;-86
2023/04/01 04:39:15;;;;;;;0.50;0.50;;;6.60;99.90;;;;;;5029173;28;20049;-86
2023/04/01 04:41:44;;;;;;;0.68;0.68;;;6.60;99.90;;;;;;5022195;28;20356;-88
2023/04/01 04:44:12;;;;;;;0.55;0.55;;;6.60;99.90;;;;;;5039508;28;20057;-90
2023/04/01 04:46:40;;;;;;;0.60;0.60;;;6.70;99.90;;;;;;5040938;28;20045;-88
2023/04/01 04:49:12;;;;;;;0.60;0.60;;;6.60;99.90;;;;;;5034301;28;20064;-87
2023/04/01 04:51:41;;;;;;;0.60;0.60;;;6.70;99.90;;;;;;5029025;28;20048;-87
2023/04/01 04:54:09;;;;;;;1.35;1.02;;;6.70;99.90;;;;;;5013499;28;20052;-88
2023/04/01 04:56:55;;;;;;;0.82;0.80;;;6.70;99.90;;;;;;5033627;28;20072;-88
2023/04/01 04:59:25;;;;;;;0.52;0.52;;;6.70;99.90;;;;;;5003609;28;20052;-86
2023/04/01 05:02:17;;;;;;;0.75;0.68;;;6.60;99.90;;;;;;5017259;28;20057;-87
2023/04/01 05:04:45;;;;;;;0.70;0.70;;;6.60;99.90;;;;;;5030695;28;20061;-86
2023/04/01 05:07:12;;;;;;;0.82;0.60;;;6.60;99.90;;;;;;5024045;28;20067;-86
2023/04/01 05:09:40;;;;;;;0.57;0.57;;;6.50;99.90;;;;;;5028946;28;20064;-87
2023/04/01 05:12:09;;;;;;;2.30;0.73;;;6.50;99.90;;;;;;5026651;28;20452;-87
2023/04/01 05:14:55;;;;;;;0.70;0.70;;;6.60;99.90;;;;;;5029515;28;20041;-89
2023/04/01 05:17:24;;;;;;;2.17;0.85;;;6.70;99.90;;;;;;5034011;28;20053;-86
2023/04/01 05:19:57;;;;;;;0.70;0.70;;;6.70;99.90;;;;;;5034463;28;20460;-88
2023/04/01 05:22:26;;;;;;;0.85;0.60;;;6.70;99.90;;;;;;5033981;28;20048;-87
2023/04/01 05:24:53;;;;;;;0.68;0.63;;;6.80;99.90;;;;;;5047302;28;20048;-87
2023/04/01 05:27:21;;;;;;;0.73;0.73;;;6.90;99.90;;;;;;5037218;28;20048;-88
2023/04/01 05:29:49;;;;;;;2.38;0.70;;;6.90;99.90;;;;;;5035364;28;20057;-85
2023/04/01 05:32:37;;;;;;;0.65;0.63;;;6.90;99.90;;;;;;5050290;28;20429;-86
2023/04/01 05:35:14;;;;;;;1.45;1.40;;;6.90;99.90;;;;;;5050117;28;20071;-86
2023/04/01 05:37:42;;;;;;;0.90;0.90;;;6.90;99.90;;;;;;5066736;28;20048;-86
2023/04/01 05:40:11;;;;;;;3.50;1.20;;;7.00;99.90;;;;;;5038846;28;20052;-87
2023/04/01 05:42:44;;;;;;;0.80;0.80;;;7.10;99.90;;;;;;5043717;28;20051;-85
2023/04/01 05:45:15;;;;;;;;;;;7.10;99.90;;;;;;5052024;28;20052;-89
2023/04/01 05:48:12;;;;;;;0.70;0.70;;;6.90;99.90;;;;;;5031729;28;20011;-85
2023/04/01 05:50:41;;;;;;;1.05;0.93;;;7.10;99.90;;;;;;5032680;28;20052;-86
2023/04/01 05:53:14;;;;;;;2.17;0.70;;;7.10;99.90;;;;;;5041977;28;20056;-85
2023/04/01 05:55:44;;;;;;;1.17;1.13;;;7.00;99.90;;;;;;5020029;28;20757;-86
2023/04/01 05:58:12;;;;;;;3.25;0.70;;;7.10;99.90;;;;;;5028167;28;20588;-86
2023/04/01 06:00:44;;;;;;;1.90;0.90;;;7.20;99.90;;;;;;5043987;28;20053;-88
2023/04/01 06:03:16;;;;;;;1.15;0.88;;;7.30;99.90;;;;;;5047543;28;20413;-88
2023/04/01 06:05:44;;;;;;;1.65;0.93;;;7.30;99.90;;;;;;5063664;28;20056;-85
2023/04/01 06:08:16;;;;;;;2.70;0.77;;;7.30;99.90;;;;;;5034504;28;20293;-86
2023/04/01 06:11:17;;;;;;;0.55;0.55;;;7.30;99.90;;;;;;5039312;28;20055;-86
2023/04/01 06:14:00;;;;;;;0.68;0.65;;;7.50;99.90;;;;;;5031785;28;20702;-87
2023/04/01 06:16:29;;;;;;;1.23;0.98;;;7.50;99.90;;;;;;5049043;28;20055;-88
2023/04/01 06:19:08;;;;;;;2.53;0.70;;;7.60;99.90;;;;;;5044456;28;20056;-85
2023/04/01 06:22:11;;;;;;;0.70;0.70;;;8.00;99.90;;;;;;5031368;28;20056;-85
2023/04/01 06:25:10;;;;;;;0.77;0.70;;;8.30;99.90;;;;;;5029346;28;20048;-86
2023/04/01 06:27:51;;;;;;;0.50;0.50;;;8.40;99.90;;;;;;5036906;28;20041;-87
2023/04/01 06:30:33;;;;;;;2.92;1.30;;;8.30;99.90;;;;;;5049622;28;20308;-89
2023/04/01 06:33:32;;;;;;;0.55;0.55;;;8.30;99.90;;;;;;5027994;28;20060;-87
2023/04/01 06:36:18;;;;;;;0.50;0.50;;;8.60;99.90;;;;;;5029894;28;20480;-87
2023/04/01 06:39:00;;;;;;;0.50;0.50;;;8.80;99.90;;;;;;5069392;28;20056;-88
2023/04/01 06:42:06;;;;;;;1.42;1.02;;;8.90;99.90;;;;;;5028329;28;20053;-85
2023/04/01 06:44:36;;;;;;;3.83;0.95;;;9.00;99.90;;;;;;5027945;28;20033;-87
2023/04/01 06:47:31;;;;;;;0.98;0.88;;;9.20;99.90;;;;;;5054712;28;20607;-87
2023/04/01 06:50:26;;;;;;;0.80;0.80;;;9.70;99.90;;;;;;5046925;28;20059;-89
2023/04/01 06:53:19;;;;;;;1.77;0.95;;;10.10;99.90;;;;;;5053133;28;20060;-87
2023/04/01 06:56:11;;;;;;;1.45;0.60;;;9.60;99.90;;;;;;5065897;28;20048;-88
2023/04/01 06:59:17;;;;;;;1.95;0.60;;;9.50;99.90;;;;;;5057184;28;20064;-87
2023/04/01 07:02:16;;;;;;;0.60;0.60;;;9.80;99.90;;;;;;5036132;28;20749;-92
2023/04/01 07:04:48;;;;;;;2.63;1.20;;;9.90;99.90;;;;;;5044365;28;20047;-88
2023/04/01 07:07:31;;;;;;;1.15;0.77;;;9.60;99.90;;;;;;5031745;28;20277;-90
2023/04/01 07:10:12;;;;;;;0.70;0.70;;;10.10;99.90;;;;;;5052000;28;20056;-88
2023/04/01 07:12:54;;;;;;;1.55;1.20;;;9.60;99.90;;;;;;5060254;28;20061;-92
2023/04/01 07:16:21;;;;;;;2.75;0.90;;;10.00;99.90;;;;;;5047851;28;20413;-89
2023/04/01 07:18:56;;;;;;;1.88;0.98;;;10.70;99.90;;;;;;5032139;28;20045;-92
2023/04/01 07:21:42;;;;;;;0.73;0.50;;;10.40;99.90;;;;;;5064529;28;20057;-89
2023/04/01 07:24:39;;;;;;;2.80;0.70;;;10.20;99.90;;;;;;5013587;28;20052;-87
2023/04/01 07:27:11;;;;;;;4.47;1.15;;;10.80;99.90;;;;;;5017486;28;20044;-89
2023/04/01 07:29:40;;;;;;;2.85;1.45;;;11.20;99.90;;;;;;5048413;28;20051;-89
2023/04/01 07:32:24;;;;;;;2.67;1.55;;;10.80;99.90;;;;;;5039068;28;20052;-88
2023/04/01 07:35:27;;;;;;;0.52;0.52;;;10.90;99.90;;;;;;5052772;28;20055;-89
2023/04/01 07:38:34;;;;;;;1.17;0.82;;;10.00;99.90;;;;;;5055474;28;20052;-90
2023/04/01 07:41:15;;;;;;;0.60;0.60;;;9.30;99.90;;;;;;5047154;28;20060;-87
2023/04/01 07:44:00;;;;;;;0.70;0.70;;;9.10;99.90;;;;;;5037892;28;20071;-92
2023/04/01 07:46:39;;;;;;;0.43;0.40;;;8.90;99.90;;;;;;5017516;28;20044;-85
2023/04/01 07:49:31;;;;;;;2.25;2.15;;;8.90;99.90;;;;;;5049005;28;20044;-87
2023/04/01 07:52:40;;;;;;;0.93;0.70;;;8.90;99.90;;;;;;5051966;28;20044;-90
2023/04/01 07:55:30;;;;;;;1.63;0.60;;;8.90;99.90;;;;;;5041718;28;20041;-91
2023/04/01 07:58:30;;;;;;;1.17;1.17;;;9.20;99.90;;;;;;5039285;28;20059;-87
2023/04/01 08:01:17;;;;;;;2.88;0.82;;;9.40;99.90;;;;;;5059166;28;20063;-87
2023/04/01 08:04:31;;;;;;;0.60;0.60;;;9.60;99.90;;;;;;5059646;28;20048;-87
2023/04/01 08:07:11;;;;;;;0.68;0.68;;;10.10;99.90;;;;;;5051005;28;20049;-89
2023/04/01 08:10:23;;;;;;;0.50;0.50;;;10.00;99.90;;;;;;5052723;28;20064;-91
2023/04/01 08:13:59;;;;;;;1.40;0.57;;;10.20;99.90;;;;;;5058938;28;20069;-88
2023/04/01 08:17:05;;;;;;;0.50;0.50;;;9.70;99.90;;;;;;5047709;28;20054;-89
2023/04/01 08:19:51;;;;;;;1.10;0.70;;;9.80;99.90;;;;;;5030160;28;20049;-89
2023/04/01 08:22:36;;;;;;;0.70;0.70;;;9.60;99.90;;;;;;5021540;28;20045;-90
2023/04/01 08:25:19;;;;;;;0.82;0.60;;;9.90;99.90;;;;;;5040603;28;20061;-90
2023/04/01 08:28:15;;;;;;;0.65;0.65;;;10.20;99.90;;;;;;5036387;28;20049;-89
2023/04/01 08:30:52;;;;;;;0.77;0.55;;;9.70;99.90;;;;;;5049374;28;20053;-87
2023/04/01 08:33:27;;;;;;;0.50;0.50;;;9.30;99.90;;;;;;5034141;28;20405;-92
2023/04/01 08:36:22;;;;;;;;;;;9.30;99.90;;;;;;5037168;28;20055;-84
2023/04/01 08:39:28;;;;;;;0.88;0.82;;;9.40;99.90;;;;;;5036314;28;19925;-84
2023/04/01 08:42:21;;;;;;;0.43;0.43;;;9.20;99.90;;;;;;5006173;28;20087;-92
2023/04/01 08:45:09;;;;;;;0.65;0.65;;;9.20;99.90;;;;;;5048475;28;20536;-88
2023/04/01 08:47:55;;;;;;;0.52;0.52;;;9.30;99.90;;;;;;5074947;28;20038;-84
2023/04/01 08:50:41;;;;;;;0.77;0.77;;;9.40;99.90;;;;;;5037154;28;20044;-89
2023/04/01 08:53:54;;;;;;;2.13;0.70;;;9.40;99.90;;;;;;5092105;28;20195;-81
2023/04/01 08:56:41;;;;;;;0.50;0.50;;;9.50;99.90;;;;;;4984229;28;20059;-83
2023/04/01 08:59:39;;;;;;;0.50;0.50;;;10.40;99.90;;;;;;5057840;28;20045;-86
2023/04/01 09:02:46;;;;;;;0.50;0.50;;;11.50;99.90;;;;;;5084342;28;20036;-88
2023/04/01 09:05:44;;;;;;;1.48;0.60;;;12.00;99.90;;;;;;5081553;28;20036;-88
2023/04/01 09:08:25;;;;;;;0.65;0.50;;;12.10;99.90;;;;;;5031880;28;20029;-83
2023/04/01 09:11:05;;;;;;;1.17;0.50;;;11.50;99.90;;;;;;5055911;28;20037;-86
2023/04/01 09:14:09;;;;;;;0.40;0.40;;;10.90;99.90;;;;;;5045894;28;20053;-88
2023/04/01 09:16:48;;;;;;;0.93;0.80;;;10.80;99.90;;;;;;5061372;28;20067;-85
2023/04/01 09:19:35;;;;;;;0.52;0.52;;;10.60;99.90;;;;;;5047579;28;20045;-92
2023/04/01 09:22:24;;;;;;;0.60;0.60;;;10.70;99.90;;;;;;5061859;28;20049;-87
2023/04/01 09:25:09;;;;;;;0.43;0.43;;;10.40;99.90;;;;;;5045211;28;20124;-85
2023/04/01 09:28:01;;;;;;;0.52;0.52;;;10.30;99.90;;;;;;5031226;28;20203;-89
2023/04/01 09:31:02;;;;;;;0.50;0.50;;;10.50;99.90;;;;;;5062572;28;20052;-89
2023/04/01 09:34:00;;;;;;;0.40;0.40;;;10.50;99.90;;;;;;5045401;28;20043;-90
2023/04/01 09:36:45;;;;;;;0.43;0.43;;;10.40;99.90;;;;;;5036282;28;20050;-92
2023/04/01 09:39:38;;;;;;;1.55;0.50;;;10.30;99.90;;;;;;5047236;28;20327;-86
2023/04/01 09:42:36;;;;;;;2.95;0.60;;;10.50;99.90;;;;;;5071994;28;20052;-88
2023/04/01 09:45:37;;;;;;;1.50;0.57;;;10.90;99.90;;;;;;5056619;28;20040;-90
2023/04/01 09:48:39;;;;;;;0.65;0.60;;;11.00;99.90;;;;;;5076065;28;20131;-89
2023/04/01 09:51:20;;;;;;;0.82;0.57;;;10.90;99.90;;;;;;5068835;28;20052;-92
2023/04/01 09:54:13;;;;;;;0.60;0.60;;;11.30;99.90;;;;;;5074626;28;20032;-93
2023/04/01 09:56:54;;;;;;;0.50;0.50;;;10.90;99.90;;;;;;5083127;28;20047;-92
2023/04/01 09:59:54;;;;;;;2.58;0.98;;;10.80;99.90;;;;;;5058679;28;20056;-91
2023/04/01 10:02:53;;;;;;;0.50;0.50;;;10.60;99.90;;;;;;5081157;28;20045;-89
2023/04/01 10:05:37;;;;;;;0.60;0.60;;;10.60;99.90;;;;;;5047916;28;20056;-92
2023/04/01 10:08:06;;;;;;;0.45;0.45;;;10.80;99.90;;;;;;5026941;28;20051;-89
2023/04/01 10:10:54;;;;;;;0.40;0.40;;;10.90;99.90;;;;;;5042527;28;20052;-87
2023/04/01 10:13:35;;;;;;;0.50;0.50;;;10.90;99.90;;;;;;5035378;28;20849;-89
2023/04/01 10:16:29;;;;;;;0.65;0.50;;;11.00;99.90;;;;;;5027197;28;20059;-87
2023/04/01 10:19:35;;;;;;;0.60;0.60;;;10.90;99.90;;;;;;5023313;28;20067;-89
2023/04/01 10:22:29;;;;;;;0.40;0.40;;;10.80;99.90;;;;;;4993222;28;20057;-89
2023/04/01 10:25:08;;;;;;;0.40;0.40;;;10.90;99.90;;;;;;5045996;28;20052;-86
2023/04/01 10:27:57;;;;;;;1.05;0.95;;;10.90;99.90;;;;;;5046993;28;20052;-87
2023/04/01 10:31:11;;;;;;;0.75;0.60;;;10.90;99.90;;;;;;5028786;28;20045;-89
2023/04/01 10:34:03;;;;;;;0.40;0.40;;;11.10;99.90;;;;;;5027155;28;20059;-91
2023/04/01 10:36:41;;;;;;;0.40;0.40;;;11.20;99.90;;;;;;5045155;28;20059;-89
2023/04/01 10:39:49;;;;;;;0.40;0.40;;;11.00;99.90;;;;;;5047644;28;20670;-87
2023/04/01 10:42:58;;;;;;;0.63;0.60;;;11.00;99.90;;;;;;5031204;28;20058;-86
2023/04/01 10:45:55;;;;;;;0.40;0.40;;;10.80;99.90;;;;;;5061865;28;20417;-91
2023/04/01 10:48:30;;;;;;;0.38;0.38;;;10.80;99.90;;;;;;5048780;28;20052;-86
2023/04/01 10:51:37;;;;;;;0.40;0.40;;;10.90;99.90;;;;;;5031888;28;20048;-91
2023/04/01 10:54:41;;;;;;;0.75;0.50;;;10.90;99.90;;;;;;5032822;28;20685;-89
2023/04/01 10:57:59;;;;;;;0.40;0.40;;;11.00;99.90;;;;;;5006027;28;20061;-90
2023/04/01 11:01:15;;;;;;;0.73;0.52;;;11.20;99.90;;;;;;4991326;28;20589;-87
2023/04/01 11:04:17;;;;;;;1.00;1.00;;;11.40;99.90;;;;;;5042983;28;20056;-89
2023/04/01 11:08:04;;;;;;;0.60;0.60;;;11.60;99.90;;;;;;4990638;28;20050;-88
2023/04/01 11:11:04;;;;;;;0.40;0.40;;;11.50;99.90;;;;;;5046810;28;20563;-87
2023/04/01 11:13:55;;;;;;;0.50;0.50;;;11.20;99.90;;;;;;5046695;28;20052;-88
2023/04/01 11:17:00;;;;;;;0.50;0.50;;;11.00;99.90;;;;;;5048194;28;20060;-87
2023/04/01 11:19:56;;;;;;;0.47;0.47;;;10.70;99.90;;;;;;5063157;28;20045;-89
2023/04/01 11:22:50;;;;;;;0.52;0.52;;;10.60;99.90;;;;;;5030297;28;20056;-89
2023/04/01 11:25:34;;;;;;;0.40;0.40;;;10.50;99.90;;;;;;5034508;28;20391;-89
2023/04/01 11:28:45;;;;;;;0.40;0.40;;;10.20;99.90;;;;;;5034734;28;20053;-89
2023/04/01 11:31:52;;;;;;;0.75;0.75;;;10.00;99.90;;;;;;5067266;28;20040;-91
2023/04/01 11:34:48;;;;;;;0.45;0.43;;;10.00;99.90;;;;;;5048970;28;20792;-86
2023/04/01 11:37:28;;;;;;;0.40;0.40;;;10.00;99.90;;;;;;5015799;28;20379;-86
2023/04/01 11:40:53;;;;;;;0.40;0.40;;;10.10;99.90;;;;;;5039004;28;20048;-88
2023/04/01 11:43:55;;;;;;;0.65;0.52;;;10.30;99.90;;;;;;5069469;28;20409;-91
2023/04/01 11:46:41;;;;;;;0.50;0.50;;;10.20;99.90;;;;;;5050759;28;20059;-88
2023/04/01 11:49:50;;;;;;;0.40;0.40;;;10.10;99.90;;;;;;5053629;28;20051;-90
2023/04/01 11:52:40;;;;;;;0.40;0.40;;;10.10;99.90;;;;;;5031244;28;20045;-89
2023/04/01 11:55:31;;;;;;;0.50;0.50;;;9.90;99.90;;;;;;5048008;28;20041;-89
2023/04/01 11:58:32;;;;;;;0.50;0.50;;;9.80;99.90;;;;;;5048035;28;20048;-87
2023/04/01 12:01:26;;;;;;;0.50;0.50;;;9.80;99.90;;;;;;5049028;28;20055;-92
2023/04/01 12:04:27;;;;;;;1.60;0.50;;;9.90;99.90;;;;;;5044755;28;20040;-90
2023/04/01 12:07:24;;;;;;;0.50;0.50;;;9.90;99.90;;;;;;5053134;28;20037;-92
2023/04/01 12:10:15;;;;;;;0.60;0.60;;;9.80;99.90;;;;;;5065927;28;20080;-89
2023/04/01 12:13:21;;;;;;;0.50;0.50;;;9.80;99.90;;;;;;5041705;28;20052;-89
2023/04/01 12:16:17;;;;;;;0.63;0.63;;;9.60;99.90;;;;;;5013157;28;20295;-87
2023/04/01 12:19:21;;;;;;;0.50;0.50;;;9.70;99.90;;;;;;5071721;28;20060;-88
2023/04/01 12:22:15;;;;;;;0.60;0.60;;;9.60;99.90;;;;;;5028279;28;20069;-89
2023/04/01 12:24:49;;;;;;;0.40;0.40;;;9.30;99.90;;;;;;5068698;28;20051;-93
2023/04/01 12:27:25;;;;;;;0.40;0.40;;;9.20;99.90;;;;;;5068334;28;20040;-83
2023/04/01 12:30:05;;;;;;;0.40;0.40;;;9.10;99.90;;;;;;5018729;28;20052;-90
2023/04/01 12:33:05;;;;;;;1.00;0.50;;;9.00;99.90;;;;;;5032871;28;20420;-87
2023/04/01 12:35:52;;;;;;;0.50;0.50;;;9.10;99.90;;;;;;5063925;28;20059;-90
2023/04/01 12:38:30;;;;;;;0.38;0.38;;;9.20;99.90;;;;;;5065517;28;20043;-88
2023/04/01 12:41:30;;;;;;;0.40;0.40;;;9.20;99.90;;;;;;5049559;28;20559;-91
2023/04/01 12:44:35;;;;;;;0.60;0.60;;;8.90;99.90;;;;;;5065341;28;20041;-93
2023/04/01 12:47:21;;;;;;;0.40;0.40;;;8.70;99.90;;;;;;5068986;28;20051;-88
2023/04/01 12:50:07;;;;;;;0.50;0.50;;;8.50;99.90;;;;;;5043906;28;20416;-89
2023/04/01 12:52:54;;;;;;;0.40;0.40;;;8.50;99.90;;;;;;5052088;28;20048;-92
2023/04/01 12:55:29;;;;;;;0.40;0.40;;;8.40;99.90;;;;;;5034100;28;20051;-92
2023/04/01 12:58:20;;;;;;;0.50;0.50;;;8.20;99.90;;;;;;5050819;28;20049;-92
2023/04/01 13:01:19;;;;;;;0.40;0.40;;;8.20;99.90;;;;;;5028280;28;20364;-90
2023/04/01 13:04:21;;;;;;;0.43;0.43;;;8.10;99.90;;;;;;5043037;28;20045;-89
2023/04/01 13:07:07;;;;;;;0.40;0.40;;;8.10;99.90;;;;;;5052931;28;20296;-93
2023/04/01 13:10:03;;;;;;;0.40;0.40;;;8.10;99.90;;;;;;5067639;28;20063;-93
2023/04/01 13:12:57;;;;;;;0.45;0.45;;;8.00;99.90;;;;;;5065571;28;20417;-89
2023/04/01 13:15:37;;;;;;;0.47;0.47;;;8.00;99.90;;;;;;5030878;28;20284;-89
2023/04/01 13:18:42;;;;;;;0.40;0.40;;;8.00;99.90;;;;;;5050805;28;20049;-92
2023/04/01 13:21:33;;;;;;;0.77;0.60;;;7.90;99.90;;;;;;5022881;28;20768;-91
2023/04/01 13:24:13;;;;;;;1.20;0.45;;;7.80;99.90;;;;;;5045365;28;20049;-93
2023/04/01 13:27:25;;;;;;;0.50;0.50;;;7.90;99.90;;;;;;5064138;28;20049;-92
2023/04/01 13:30:13;;;;;;;0.50;0.50;;;7.80;99.90;;;;;;5035473;28;20410;-90
2023/04/01 13:32:54;;;;;;;0.50;0.50;;;7.80;99.90;;;;;;5071836;28;20677;-89
2023/04/01 13:35:40;;;;;;;0.40;0.40;;;7.70;99.90;;;;;;5057759;28;20698;-89
2023/04/01 13:38:37;;;;;;;0.40;0.40;;;7.70;99.90;;;;;;5052609;28;20793;-91
2023/04/01 13:41:35;;;;;;;0.40;0.40;;;7.60;99.90;;;;;;5057651;28;20064;-92
2023/04/01 13:44:29;;;;;;;0.50;0.50;;;7.60;99.90;;;;;;5048277;28;20443;-93
2023/04/01 13:47:12;;;;;;;0.60;0.60;;;7.60;99.90;;;;;;5052720;28;20063;-93
2023/04/01 13:49:57;;;;;;;0.60;0.60;;;7.60;99.90;;;;;;5069140;28;20060;-89
2023/04/01 13:52:44;;;;;;;0.95;0.60;;;7.60;99.90;;;;;;5058370;28;20216;-91
2023/04/01 13:55:40;;;;;;;0.40;0.40;;;7.60;99.90;;;;;;5048005;28;20071;-91
2023/04/01 13:58:23;;;;;;;0.57;0.50;;;7.50;99.90;;;;;;5052597;28;20531;-93
2023/04/01 14:01:19;;;;;;;0.60;0.60;;;7.50;99.90;;;;;;5063162;28;20059;-91
2023/04/01 14:04:22;;;;;;;0.68;0.68;;;7.50;99.90;;;;;;5045873;28;20064;-91
2023/04/01 14:07:12;;;;;;;0.60;0.52;;;7.50;99.90;;;;;;5063004;28;20481;-88
2023/04/01 14:10:12;;;;;;;0.60;0.60;;;7.40;99.90;;;;;;5066258;28;20057;-91
2023/04/01 14:12:56;;;;;;;0.50;0.50;;;7.40;99.90;;;;;;5017829;28;20048;-91
2023/04/01 14:15:40;;;;;;;0.63;0.63;;;7.40;99.90;;;;;;5062507;28;20047;-90
2023/04/01 14:18:37;;;;;;;1.60;0.50;;;7.40;99.90;;;;;;5049804;28;20508;-90
2023/04/01 14:21:28;;;;;;;0.50;0.50;;;7.40;99.90;;;;;;5020150;28;20060;-90